createdAt,value
2019-03-27T00:01:03.070Z,102318.95
2019-03-27T00:05:06.789Z,102317.87
2019-03-27T00:09:10.420Z,102314.02
2019-03-27T00:13:14.021Z,102305.11
2019-03-27T00:17:17.629Z,102296.09
2019-03-27T00:21:21.347Z,102300.55
2019-03-27T00:25:24.958Z,102294.26
2019-03-27T00:29:28.570Z,102293.16
2019-03-27T00:33:32.154Z,102290.92
2019-03-27T00:37:36.211Z,102291.67
2019-03-27T00:41:39.823Z,102292.69
2019-03-27T00:45:43.437Z,102298.63
2019-03-27T00:49:47.050Z,102288.78
2019-03-27T00:53:50.765Z,102286.62
2019-03-27T00:57:54.378Z,102290.05
2019-03-27T01:01:58.098Z,102292.91
2019-03-27T01:06:01.707Z,102294.32
2019-03-27T01:10:06.195Z,102289.22
2019-03-27T01:14:09.864Z,102289.78
2019-03-27T01:18:13.565Z,102299.95
2019-03-27T01:22:17.297Z,102305.84
2019-03-27T01:26:20.906Z,102302.02
2019-03-27T01:30:24.620Z,102297.27
2019-03-27T01:34:28.232Z,102292.12
2019-03-27T01:38:31.848Z,102288.38
2019-03-27T01:42:35.567Z,102295.15
2019-03-27T01:46:39.259Z,102288.33
2019-03-27T01:50:42.893Z,102286.48
2019-03-27T01:54:46.610Z,102286.12
2019-03-27T01:58:50.238Z,102283.31
2019-03-27T02:02:53.841Z,102287.28
2019-03-27T02:06:57.556Z,102283.05
2019-03-27T02:11:01.271Z,102286.00
2019-03-27T02:15:08.262Z,102270.42
2019-03-27T02:19:11.883Z,102267.70
2019-03-27T02:23:15.701Z,102274.03
2019-03-27T02:27:19.307Z,102282.05
2019-03-27T02:31:22.925Z,102288.77
2019-03-27T02:35:26.539Z,102298.71
2019-03-27T02:39:30.155Z,102290.22
2019-03-27T02:43:33.768Z,102287.40
2019-03-27T02:47:37.693Z,102284.02
2019-03-27T02:51:41.302Z,102295.49
2019-03-27T02:55:45.133Z,102288.59
2019-03-27T02:59:48.833Z,102279.92
2019-03-27T03:03:52.386Z,102275.79
2019-03-27T03:07:55.943Z,102286.66
2019-03-27T03:11:59.774Z,102293.08
2019-03-27T03:16:03.394Z,102290.45
2019-03-27T03:20:08.953Z,102277.25
2019-03-27T03:24:12.563Z,102279.41
2019-03-27T03:28:16.181Z,102288.91
2019-03-27T03:32:19.797Z,102288.91
2019-03-27T03:36:23.511Z,102294.58
2019-03-27T03:40:27.224Z,102289.52
2019-03-27T03:44:30.946Z,102290.23
2019-03-27T03:48:34.576Z,102296.08
2019-03-27T03:52:38.379Z,102307.42
2019-03-27T03:56:42.549Z,102315.04
2019-03-27T04:00:46.738Z,102317.33
2019-03-27T04:04:55.770Z,102320.85
2019-03-27T04:08:59.379Z,102319.48
2019-03-27T04:13:03.201Z,102325.16
2019-03-27T04:17:17.035Z,102326.27
2019-03-27T04:21:12.176Z,102332.60
2019-03-27T04:25:15.782Z,102322.83
2019-03-27T04:29:19.500Z,102328.11
2019-03-27T04:33:23.111Z,102326.88
2019-03-27T04:37:26.724Z,102329.39
2019-03-27T04:41:30.340Z,102331.44
2019-03-27T04:45:33.953Z,102328.24
2019-03-27T04:49:37.565Z,102335.55
2019-03-27T04:53:41.192Z,102347.21
2019-03-27T04:57:44.792Z,102345.54
2019-03-27T05:01:48.517Z,102344.62
2019-03-27T05:05:52.233Z,102339.25
2019-03-27T05:09:55.953Z,102338.05
2019-03-27T05:13:59.560Z,102343.52
2019-03-27T05:18:03.169Z,102353.45
2019-03-27T05:22:06.993Z,102347.55
2019-03-27T05:26:10.604Z,102340.44
2019-03-27T05:30:15.754Z,102339.69
2019-03-27T05:34:19.377Z,102352.76
2019-03-27T05:38:22.989Z,102345.44
2019-03-27T05:42:26.700Z,102346.49
2019-03-27T05:46:30.321Z,102348.48
2019-03-27T05:50:33.928Z,102347.16
2019-03-27T05:54:37.554Z,102344.80
2019-03-27T05:58:41.157Z,102352.12
2019-03-27T06:02:44.870Z,102363.88
2019-03-27T06:06:48.484Z,102369.70
2019-03-27T06:10:52.208Z,102373.67
2019-03-27T06:14:55.819Z,102383.38
2019-03-27T06:18:59.431Z,102384.50
2019-03-27T06:23:03.148Z,102388.06
2019-03-27T06:27:06.776Z,102381.03
2019-03-27T06:31:10.473Z,102375.52
2019-03-27T06:35:14.293Z,102390.17
2019-03-27T06:39:18.216Z,102393.86
2019-03-27T06:43:22.306Z,102389.55
2019-03-27T06:47:25.938Z,102385.98
2019-03-27T06:51:39.515Z,102383.86
2019-03-27T06:55:35.048Z,102390.34
2019-03-27T06:59:38.677Z,102394.31
2019-03-27T07:03:42.460Z,102392.64
2019-03-27T07:07:46.073Z,102394.45
2019-03-27T07:11:49.684Z,102399.28
2019-03-27T07:15:53.298Z,102398.10
2019-03-27T07:19:56.910Z,102400.47
2019-03-27T07:24:00.923Z,102403.42
2019-03-27T07:28:04.549Z,102410.55
2019-03-27T07:32:08.170Z,102409.19
2019-03-27T07:36:11.778Z,102408.99
2019-03-27T07:40:15.596Z,102411.88
2019-03-27T07:44:19.215Z,102408.22
2019-03-27T07:48:22.928Z,102413.17
2019-03-27T07:52:26.538Z,102414.77
2019-03-27T07:56:30.154Z,102418.94
2019-03-27T08:00:33.765Z,102417.91
2019-03-27T08:04:37.381Z,102421.53
2019-03-27T08:08:40.999Z,102422.66
2019-03-27T08:12:44.715Z,102418.39
2019-03-27T08:16:48.491Z,102421.45
2019-03-27T08:20:52.144Z,102423.27
2019-03-27T08:24:55.756Z,102415.94
2019-03-27T08:28:59.378Z,102416.91
2019-03-27T08:33:03.088Z,102422.78
2019-03-27T08:37:06.700Z,102417.00
2019-03-27T08:41:10.324Z,102426.41
2019-03-27T08:45:14.439Z,102424.00
2019-03-27T08:49:22.283Z,102430.43
2019-03-27T08:53:23.512Z,102437.42
2019-03-27T08:57:27.123Z,102440.82
2019-03-27T09:01:30.843Z,102444.05
2019-03-27T09:05:34.455Z,102444.33
2019-03-27T09:09:38.070Z,102442.16
2019-03-27T09:13:41.682Z,102433.69
2019-03-27T09:17:45.312Z,102439.80
2019-03-27T09:21:49.029Z,102434.55
2019-03-27T09:25:52.737Z,102441.41
2019-03-27T09:29:56.350Z,102442.21
2019-03-27T09:34:00.164Z,102441.45
2019-03-27T09:38:03.879Z,102439.34
2019-03-27T09:42:07.598Z,102432.05
2019-03-27T09:46:12.816Z,102430.98
2019-03-27T09:50:16.673Z,102427.09
2019-03-27T09:54:20.515Z,102428.17
2019-03-27T09:58:24.215Z,102431.50
2019-03-27T10:02:28.024Z,102438.38
2019-03-27T10:06:31.639Z,102441.11
2019-03-27T10:10:35.255Z,102438.84
2019-03-27T10:14:38.863Z,102429.19
2019-03-27T10:18:42.581Z,102430.64
2019-03-27T10:22:46.134Z,102437.58
2019-03-27T10:26:49.808Z,102437.52
2019-03-27T10:30:53.543Z,102431.80
2019-03-27T10:34:57.140Z,102433.72
2019-03-27T10:39:00.846Z,102432.32
2019-03-27T10:43:04.672Z,102425.09
2019-03-27T10:47:08.594Z,102431.68
2019-03-27T10:51:12.314Z,102430.91
2019-03-27T10:55:16.028Z,102430.26
2019-03-27T10:59:20.665Z,102436.70
2019-03-27T11:03:24.378Z,102426.41
2019-03-27T11:07:27.993Z,102421.01
2019-03-27T11:11:31.607Z,102425.42
2019-03-27T11:15:35.164Z,102429.38
2019-03-27T11:19:38.843Z,102426.23
2019-03-27T11:23:42.456Z,102426.30
2019-03-27T11:27:46.012Z,102424.20
2019-03-27T11:31:49.582Z,102421.42
2019-03-27T11:35:53.345Z,102422.36
2019-03-27T11:39:57.011Z,102421.62
2019-03-27T11:44:00.673Z,102412.05
2019-03-27T11:48:04.438Z,102413.08
2019-03-27T11:52:08.408Z,102413.61
2019-03-27T11:56:11.980Z,102407.85
2019-03-27T12:00:15.973Z,102416.13
2019-03-27T12:04:19.615Z,102421.75
2019-03-27T12:08:23.239Z,102411.59
2019-03-27T12:12:26.845Z,102411.35
2019-03-27T12:16:30.385Z,102413.08
2019-03-27T12:20:35.879Z,102406.20
2019-03-27T12:24:43.222Z,102406.23
2019-03-27T12:28:47.027Z,102410.63
2019-03-27T12:32:51.094Z,102411.92
2019-03-27T12:36:55.079Z,102400.28
2019-03-27T12:40:59.397Z,102407.27
2019-03-27T12:45:03.134Z,102400.93
2019-03-27T12:49:06.875Z,102400.52
2019-03-27T12:53:11.111Z,102399.25
2019-03-27T12:57:15.047Z,102407.95
2019-03-27T13:01:18.818Z,102405.82
2019-03-27T13:05:22.743Z,102401.47
2019-03-27T13:09:26.798Z,102400.23
2019-03-27T13:13:30.375Z,102400.97
2019-03-27T13:17:35.215Z,102394.62
2019-03-27T13:21:38.944Z,102399.65
2019-03-27T13:25:42.646Z,102405.07
2019-03-27T13:29:46.573Z,102415.00
2019-03-27T13:33:50.657Z,102414.86
2019-03-27T13:37:54.571Z,102413.81
2019-03-27T13:41:58.228Z,102423.51
2019-03-27T13:46:01.950Z,102422.19
2019-03-27T13:50:08.643Z,102429.92
2019-03-27T13:54:12.243Z,102426.55
2019-03-27T13:58:15.771Z,102427.98
2019-03-27T14:02:19.860Z,102428.52
2019-03-27T14:06:23.601Z,102428.31
2019-03-27T14:10:27.317Z,102440.55
2019-03-27T14:14:30.931Z,102422.25
2019-03-27T14:18:34.750Z,102431.98
2019-03-27T14:22:38.467Z,102418.05
2019-03-27T14:26:45.361Z,102424.70
2019-03-27T14:30:50.682Z,102427.95
2019-03-27T14:34:54.427Z,102432.16
2019-03-27T14:38:57.971Z,102425.66
2019-03-27T14:43:01.658Z,102425.65
2019-03-27T14:47:05.371Z,102428.08
2019-03-27T14:51:09.291Z,102425.20
2019-03-27T14:55:13.120Z,102429.47
2019-03-27T14:59:17.032Z,102426.05
2019-03-27T15:03:20.643Z,102424.79
2019-03-27T15:07:24.259Z,102431.45
2019-03-27T15:11:27.818Z,102430.68
2019-03-27T15:15:31.592Z,102433.39
2019-03-27T15:19:35.206Z,102438.59
2019-03-27T15:23:38.818Z,102438.73
2019-03-27T15:27:42.487Z,102450.52
2019-03-27T15:31:46.146Z,102450.66
2019-03-27T15:35:49.759Z,102450.70
2019-03-27T15:39:53.328Z,102442.91
2019-03-27T15:43:56.992Z,102452.42
2019-03-27T15:48:01.436Z,102448.33
2019-03-27T15:52:05.139Z,102450.37
2019-03-27T15:56:08.879Z,102452.49
2019-03-27T16:00:13.385Z,102458.05
2019-03-27T16:04:17.003Z,102448.62
2019-03-27T16:08:20.622Z,102448.28
2019-03-27T16:12:24.239Z,102455.98
2019-03-27T16:16:27.947Z,102447.90
2019-03-27T16:20:31.559Z,102449.70
2019-03-27T16:24:35.118Z,102452.56
2019-03-27T16:28:38.791Z,102455.59
2019-03-27T16:32:42.343Z,102455.78
2019-03-27T16:36:47.141Z,102458.61
2019-03-27T16:40:50.755Z,102459.56
2019-03-27T16:44:54.380Z,102458.66
2019-03-27T16:48:58.083Z,102458.15
2019-03-27T16:53:03.691Z,102458.54
2019-03-27T16:57:07.102Z,102451.06
2019-03-27T17:01:12.010Z,102450.37
2019-03-27T17:05:16.043Z,102447.50
2019-03-27T17:09:19.739Z,102452.67
2019-03-27T17:13:23.350Z,102453.98
2019-03-27T17:17:27.255Z,102452.20
2019-03-27T17:21:30.888Z,102460.04
2019-03-27T17:25:38.171Z,102462.73
2019-03-27T17:29:42.487Z,102470.16
2019-03-27T17:33:46.437Z,102481.22
2019-03-27T17:37:51.631Z,102485.16
2019-03-27T17:41:57.741Z,102476.56
2019-03-27T17:46:01.540Z,102474.00
2019-03-27T17:50:07.336Z,102485.45
2019-03-27T17:54:20.550Z,102486.05
2019-03-27T17:58:16.950Z,102489.06
2019-03-27T18:02:21.189Z,102490.41
2019-03-27T18:06:24.980Z,102499.88
2019-03-27T18:10:28.593Z,102503.38
2019-03-27T18:14:33.799Z,102509.02
2019-03-27T18:18:37.558Z,102509.64
2019-03-27T18:22:41.215Z,102520.02
2019-03-27T18:26:44.792Z,102513.04
2019-03-27T18:30:48.399Z,102517.99
2019-03-27T18:34:52.022Z,102521.45
2019-03-27T18:38:56.052Z,102527.20
2019-03-27T18:42:59.754Z,102523.20
2019-03-27T18:47:03.954Z,102531.55
2019-03-27T18:51:08.149Z,102524.97
2019-03-27T18:55:25.511Z,102529.53
2019-03-27T18:59:18.135Z,102538.03
2019-03-27T19:03:23.080Z,102536.80
2019-03-27T19:07:27.053Z,102530.27
2019-03-27T19:11:31.401Z,102537.63
2019-03-27T19:15:36.336Z,102530.89
2019-03-27T19:19:40.570Z,102531.45
2019-03-27T19:23:44.586Z,102532.34
2019-03-27T19:27:48.457Z,102534.85
2019-03-27T19:31:52.548Z,102538.98
2019-03-27T19:35:56.771Z,102542.83
2019-03-27T19:40:01.164Z,102544.33
2019-03-27T19:44:05.959Z,102538.93
2019-03-27T19:48:09.758Z,102532.34
2019-03-27T19:52:13.478Z,102538.93
2019-03-27T19:56:17.208Z,102533.30
2019-03-27T20:00:21.582Z,102540.48
2019-03-27T20:04:25.574Z,102536.09
2019-03-27T20:08:29.569Z,102539.09
2019-03-27T20:12:33.308Z,102539.38
2019-03-27T20:16:37.105Z,102532.41
2019-03-27T20:20:41.025Z,102534.14
2019-03-27T20:24:45.062Z,102535.42
2019-03-27T20:28:48.765Z,102539.05
2019-03-27T20:32:52.738Z,102544.56
2019-03-27T20:36:56.778Z,102541.61
2019-03-27T20:41:00.973Z,102544.11
2019-03-27T20:45:07.019Z,102543.72
2019-03-27T20:49:10.749Z,102541.11
2019-03-27T20:53:14.360Z,102544.78
2019-03-27T20:57:19.789Z,102549.85
2019-03-27T21:01:23.356Z,102547.84
2019-03-27T21:05:27.231Z,102544.67
2019-03-27T21:09:30.849Z,102551.43
2019-03-27T21:13:34.563Z,102543.46
2019-03-27T21:17:38.380Z,102542.13
2019-03-27T21:21:42.915Z,102547.86
2019-03-27T21:25:46.525Z,102539.22
2019-03-27T21:29:50.141Z,102537.77
2019-03-27T21:33:53.758Z,102540.50
2019-03-27T21:37:57.855Z,102539.89
2019-03-27T21:42:01.809Z,102544.17
2019-03-27T21:46:05.415Z,102547.41
2019-03-27T21:50:09.443Z,102550.31
2019-03-27T21:54:13.160Z,102553.82
2019-03-27T21:58:16.770Z,102562.19
2019-03-27T22:02:20.694Z,102563.91
2019-03-27T22:06:24.405Z,102569.30
2019-03-27T22:10:27.981Z,102571.92
2019-03-27T22:14:31.635Z,102573.09
2019-03-27T22:18:35.247Z,102575.10
2019-03-27T22:22:38.870Z,102582.22
2019-03-27T22:26:42.513Z,102584.34
2019-03-27T22:30:46.193Z,102585.67
2019-03-27T22:34:49.805Z,102582.06
2019-03-27T22:38:53.419Z,102584.05
2019-03-27T22:42:57.119Z,102590.41
2019-03-27T22:47:00.855Z,102589.02
2019-03-27T22:51:04.579Z,102590.36
2019-03-27T22:55:09.083Z,102586.12
2019-03-27T22:59:12.726Z,102584.11
2019-03-27T23:03:18.460Z,102586.91
2019-03-27T23:07:22.202Z,102588.78
2019-03-27T23:11:25.921Z,102590.02
2019-03-27T23:15:29.533Z,102586.95
2019-03-27T23:19:33.245Z,102592.05
2019-03-27T23:23:36.865Z,102598.80
2019-03-27T23:27:40.577Z,102597.62
2019-03-27T23:31:44.305Z,102594.77
2019-03-27T23:35:48.010Z,102605.41
2019-03-27T23:39:51.629Z,102600.78
2019-03-27T23:43:55.342Z,102596.13
2019-03-27T23:47:58.954Z,102598.56
2019-03-27T23:52:02.671Z,102602.74
2019-03-27T23:56:16.039Z,102598.72
